JOHN F KENNEDY INTL

KJFK (JFK)
New York, New York
Towered

Vatsim Metar:
KJFK 300351Z 04007KT 10SM OVC006 08/08 A2988 RMK AO2 SLP118 T00780078

No ATC Online

Traffic

Inbound:
Ident
Type
Name
ETA
Phase
JBU283
A320/L
shady ahmed moubarak HECA
04:52 Z
Taxiing In
SWA88
B737
Brandon Turley KPSC
04:50 Z
Descent
KQA2
H/B788/X
Elhadj THIAM LFPG
08:14 Z
Cruse
SAA62
B773
Timothy Scott-White FAOR
09:18 Z
Cruse

Outbound:
Ident
Type
Name
Destination
Phase
CXA181H
H/B772
Robert Anselmo KBTR
KMIA
Boarding
KLM644
H/B772/L
Thanny Davelaar EHAM
EHAM
Boarding
GTI549
H/B744/X
Miguel Peralta KPVD
RKSI
Climb
DAL134
B752/L
Josh Nunn KADS
BIKF
Climb
THY6557
H/B77L/L
Martin Cordero OMAA
SEQM
Climb